Pilot No 5 — WDC3840 — position and weather

sailwx.info

Track history (hours):
 
Tides and Currents Weather Stations Pressure Air Temp Water Temp Dewpoint Dewpoint Depression Visibility Wind Speed Wind Dir Waves Ship Positions

Pilot No 5

More information available from US FCC via Universal Licensing System and Coast Guard Vessel Documentation Center.

Last reported at 2014-Aug-28 08:33 UTC. Time now 2014-Aug-28 09:24 UTC.
Position N 26°06' W 080°06'.

Length 6 m.

Type: Pilot. MMSI: 367015090.

Date/timePositionNaut miles runAvg speedWind from/ knotsBaromVisibWave heightAir tempDewpointWater temp
2014-Aug-28 08:33N 26°06' W 080°06'1 1.2
2014-Aug-28 07:33N 26°06' W 080°07'0 0.0
2014-Aug-28 06:33N 26°06' W 080°07'0 0.5
2014-Aug-28 05:33N 26°06' W 080°07'0 0.3
2014-Aug-28 04:33N 26°06' W 080°07'4 0.2
2014-Aug-27 10:33N 26°06' W 080°03'4 2.0
2014-Aug-27 08:33N 26°06' W 080°07'1 1.4
2014-Aug-27 07:33N 26°05' W 080°07'1 1.0
2014-Aug-27 06:33N 26°05' W 080°07'1 0.6
2014-Aug-27 05:17N 26°06' W 080°07'0 0.0
2014-Aug-27 04:33N 26°06' W 080°07'0 0.0
2014-Aug-27 03:33N 26°06' W 080°07'0 0.0
2014-Aug-27 02:33N 26°06' W 080°07'0 0.4
2014-Aug-27 01:33N 26°06' W 080°07'0 0.4
2014-Aug-27 00:34N 26°06' W 080°07'0 0.0
2014-Aug-26 23:34N 26°06' W 080°07'1 0.5
2014-Aug-26 22:33N 26°06' W 080°07'1 0.7
2014-Aug-26 21:34N 26°06' W 080°06'1 0.6
2014-Aug-26 20:33N 26°05' W 080°07'0 0.3
2014-Aug-26 19:33N 26°05' W 080°07'1 1.0
2014-Aug-26 18:33N 26°06' W 080°07'0 0.0
2014-Aug-26 17:33N 26°06' W 080°07'1 0.8
2014-Aug-26 16:33N 26°05' W 080°07'1 0.8
2014-Aug-26 15:33N 26°06' W 080°07'0 0.0
2014-Aug-26 14:33N 26°06' W 080°07'1 0.7
2014-Aug-26 13:33N 26°05' W 080°07'2 1.6
2014-Aug-26 12:34N 26°05' W 080°05'2 1.8
2014-Aug-26 11:33N 26°06' W 080°07'0 0.2
2014-Aug-26 10:29N 26°06' W 080°07'1 0.9
2014-Aug-26 09:34N 26°05' W 080°07'1 0.6
2014-Aug-26 08:33N 26°06' W 080°06'1 0.6
2014-Aug-26 07:33N 26°05' W 080°07'0 0.1
2014-Aug-26 06:33N 26°05' W 080°07'1 0.3
2014-Aug-26 03:33N 26°06' W 080°07'0 0.0
2014-Aug-26 02:33N 26°06' W 080°07'0 0.4
2014-Aug-26 01:33N 26°06' W 080°07'0 0.4
2014-Aug-26 00:33N 26°06' W 080°07'0 0.0
2014-Aug-25 23:33N 26°06' W 080°07'1 1.3
2014-Aug-25 22:34N 26°05' W 080°07'1 1.3
2014-Aug-25 21:33N 26°06' W 080°07'0 0.0
2014-Aug-25 20:33N 26°06' W 080°07'2 1.6
2014-Aug-25 19:33N 26°05' W 080°06'1 0.2
2014-Aug-25 14:33N 26°06' W 080°07'0 0.5
2014-Aug-25 13:33N 26°06' W 080°07'1 0.6
2014-Aug-25 12:33N 26°06' W 080°07'2 1.8
2014-Aug-25 11:33N 26°06' W 080°05'2 1.4
2014-Aug-25 10:18N 26°06' W 080°07'1 0.8
2014-Aug-25 09:33N 26°05' W 080°07'3 1.7
2014-Aug-25 07:33N 26°05' W 080°03'3 3.4
2014-Aug-25 06:33N 26°06' W 080°07'0 0.1
2014-Aug-25 04:33N 26°06' W 080°07'1 1.5
2014-Aug-25 03:33N 26°06' W 080°05'2 1.9
2014-Aug-25 02:33N 26°06' W 080°07'1 0.6
2014-Aug-25 01:33N 26°06' W 080°07'1 0.6
2014-Aug-25 00:33N 26°06' W 080°07'1 0.6
2014-Aug-24 23:33N 26°06' W 080°07'0 0.2
2014-Aug-24 22:33N 26°05' W 080°07'1 1.4
2014-Aug-24 21:33N 26°06' W 080°05'1 1.5
2014-Aug-24 20:33N 26°06' W 080°07'2 1.1
2014-Aug-24 18:33N 26°05' W 080°05'3 2.6
2014-Aug-24 17:33N 26°06' W 080°07'0 0.0
2014-Aug-24 16:33N 26°06' W 080°07'0 0.0
2014-Aug-24 15:33N 26°06' W 080°07'0 0.4
2014-Aug-24 14:33N 26°06' W 080°07'1 1.4
2014-Aug-24 13:33N 26°04' W 080°07'3 2.5
2014-Aug-24 12:33N 26°05' W 080°04'3 3.1
2014-Aug-24 11:33N 26°06' W 080°07'0 0.0
2014-Aug-23 19:30N 26°06' W 080°07'0 0.0
2014-Aug-22 17:33N 26°06' W 080°07'0 0.0
2014-Aug-22 16:33N 26°06' W 080°07'0 0.0
2014-Aug-22 15:33N 26°06' W 080°07'0 0.1
2014-Aug-22 14:33N 26°06' W 080°07'1 1.2
2014-Aug-22 13:33N 26°05' W 080°07'3 2.5
2014-Aug-22 12:33N 26°06' W 080°04'2 0.1
2014-Aug-21 11:33N 26°06' W 080°07'0 0.5
2014-Aug-21 10:33N 26°05' W 080°07'0 0.2
2014-Aug-21 09:33N 26°05' W 080°07'2 0.5
2014-Aug-21 06:33N 26°06' W 080°05'2 1.2
2014-Aug-21 05:10N 26°06' W 080°07'1 2.4
2014-Aug-21 04:33N 26°05' W 080°06'2 1.7
2014-Aug-21 03:33N 26°06' W 080°07'0 0.0
2014-Aug-21 01:11N 26°06' W 080°07'1 2.3
2014-Aug-21 00:33N 26°06' W 080°06'1 0.9
2014-Aug-20 23:33N 26°05' W 080°07'  
Track history (hours):
 
Tides and Currents Weather Stations Pressure Air Temp Water Temp Dewpoint Dewpoint Depression Visibility Wind Speed Wind Dir Waves Ship Positions

Pilot No 5

More information available from US FCC via Universal Licensing System and Coast Guard Vessel Documentation Center.

Last reported at 2014-Aug-28 08:33 UTC. Time now 2014-Aug-28 09:24 UTC.
Position N 26°06' W 080°06'.

Length 6 m.

Type: Pilot. MMSI: 367015090.

Date/timePositionNaut miles runAvg speedWind from/ knotsBaromVisibWave heightAir tempDewpointWater temp
2014-Aug-28 08:33N 26°06' W 080°06'1 1.2
2014-Aug-28 07:33N 26°06' W 080°07'0 0.0
2014-Aug-28 06:33N 26°06' W 080°07'0 0.5
2014-Aug-28 05:33N 26°06' W 080°07'0 0.3
2014-Aug-28 04:33N 26°06' W 080°07'4 0.2
2014-Aug-27 10:33N 26°06' W 080°03'4 2.0
2014-Aug-27 08:33N 26°06' W 080°07'1 1.4
2014-Aug-27 07:33N 26°05' W 080°07'1 1.0
2014-Aug-27 06:33N 26°05' W 080°07'1 0.6
2014-Aug-27 05:17N 26°06' W 080°07'0 0.0
2014-Aug-27 04:33N 26°06' W 080°07'0 0.0
2014-Aug-27 03:33N 26°06' W 080°07'0 0.0
2014-Aug-27 02:33N 26°06' W 080°07'0 0.4
2014-Aug-27 01:33N 26°06' W 080°07'0 0.4
2014-Aug-27 00:34N 26°06' W 080°07'0 0.0
2014-Aug-26 23:34N 26°06' W 080°07'1 0.5
2014-Aug-26 22:33N 26°06' W 080°07'1 0.7
2014-Aug-26 21:34N 26°06' W 080°06'1 0.6
2014-Aug-26 20:33N 26°05' W 080°07'0 0.3
2014-Aug-26 19:33N 26°05' W 080°07'1 1.0
2014-Aug-26 18:33N 26°06' W 080°07'0 0.0
2014-Aug-26 17:33N 26°06' W 080°07'1 0.8
2014-Aug-26 16:33N 26°05' W 080°07'1 0.8
2014-Aug-26 15:33N 26°06' W 080°07'0 0.0
2014-Aug-26 14:33N 26°06' W 080°07'1 0.7
2014-Aug-26 13:33N 26°05' W 080°07'2 1.6
2014-Aug-26 12:34N 26°05' W 080°05'2 1.8
2014-Aug-26 11:33N 26°06' W 080°07'0 0.2
2014-Aug-26 10:29N 26°06' W 080°07'1 0.9
2014-Aug-26 09:34N 26°05' W 080°07'1 0.6
2014-Aug-26 08:33N 26°06' W 080°06'1 0.6
2014-Aug-26 07:33N 26°05' W 080°07'0 0.1
2014-Aug-26 06:33N 26°05' W 080°07'1 0.3
2014-Aug-26 03:33N 26°06' W 080°07'0 0.0
2014-Aug-26 02:33N 26°06' W 080°07'0 0.4
2014-Aug-26 01:33N 26°06' W 080°07'0 0.4
2014-Aug-26 00:33N 26°06' W 080°07'0 0.0
2014-Aug-25 23:33N 26°06' W 080°07'1 1.3
2014-Aug-25 22:34N 26°05' W 080°07'1 1.3
2014-Aug-25 21:33N 26°06' W 080°07'0 0.0
2014-Aug-25 20:33N 26°06' W 080°07'2 1.6
2014-Aug-25 19:33N 26°05' W 080°06'1 0.2
2014-Aug-25 14:33N 26°06' W 080°07'0 0.5
2014-Aug-25 13:33N 26°06' W 080°07'1 0.6
2014-Aug-25 12:33N 26°06' W 080°07'2 1.8
2014-Aug-25 11:33N 26°06' W 080°05'2 1.4
2014-Aug-25 10:18N 26°06' W 080°07'1 0.8
2014-Aug-25 09:33N 26°05' W 080°07'3 1.7
2014-Aug-25 07:33N 26°05' W 080°03'3 3.4
2014-Aug-25 06:33N 26°06' W 080°07'0 0.1
2014-Aug-25 04:33N 26°06' W 080°07'1 1.5
2014-Aug-25 03:33N 26°06' W 080°05'2 1.9
2014-Aug-25 02:33N 26°06' W 080°07'1 0.6
2014-Aug-25 01:33N 26°06' W 080°07'1 0.6
2014-Aug-25 00:33N 26°06' W 080°07'1 0.6
2014-Aug-24 23:33N 26°06' W 080°07'0 0.2
2014-Aug-24 22:33N 26°05' W 080°07'1 1.4
2014-Aug-24 21:33N 26°06' W 080°05'1 1.5
2014-Aug-24 20:33N 26°06' W 080°07'2 1.1
2014-Aug-24 18:33N 26°05' W 080°05'3 2.6
2014-Aug-24 17:33N 26°06' W 080°07'0 0.0
2014-Aug-24 16:33N 26°06' W 080°07'0 0.0
2014-Aug-24 15:33N 26°06' W 080°07'0 0.4
2014-Aug-24 14:33N 26°06' W 080°07'1 1.4
2014-Aug-24 13:33N 26°04' W 080°07'3 2.5
2014-Aug-24 12:33N 26°05' W 080°04'3 3.1
2014-Aug-24 11:33N 26°06' W 080°07'0 0.0
2014-Aug-23 19:30N 26°06' W 080°07'0 0.0
2014-Aug-22 17:33N 26°06' W 080°07'0 0.0
2014-Aug-22 16:33N 26°06' W 080°07'0 0.0
2014-Aug-22 15:33N 26°06' W 080°07'0 0.1
2014-Aug-22 14:33N 26°06' W 080°07'1 1.2
2014-Aug-22 13:33N 26°05' W 080°07'3 2.5
2014-Aug-22 12:33N 26°06' W 080°04'2 0.1
2014-Aug-21 11:33N 26°06' W 080°07'0 0.5
2014-Aug-21 10:33N 26°05' W 080°07'0 0.2
2014-Aug-21 09:33N 26°05' W 080°07'2 0.5
2014-Aug-21 06:33N 26°06' W 080°05'2 1.2
2014-Aug-21 05:10N 26°06' W 080°07'1 2.4
2014-Aug-21 04:33N 26°05' W 080°06'2 1.7
2014-Aug-21 03:33N 26°06' W 080°07'0 0.0
2014-Aug-21 01:11N 26°06' W 080°07'1 2.3
2014-Aug-21 00:33N 26°06' W 080°06'1 0.9
2014-Aug-20 23:33N 26°05' W 080°07'  

Dump ship's entire track history